Time;durP1;ratioP1;P1;durP2;ratioP2;P2;SDS_P1;SDS_P2;PMS_P1;PMS_P2;Temp;Humidity;BMP_temperature;BMP_pressure;BME280_temperature;BME280_humidity;BME280_pressure;Samples;Min_cycle;Max_cycle;Signal;HPM_P1;HPM_P2
2023/12/14 00:00:22;;;;;;;;;27.40;23.60;;;;;7.47;75.66;98062.06;5131364;27;8936;-75
2023/12/14 00:03:12;;;;;;;;;27.20;24.40;;;;;7.85;74.36;98062.56;5128734;27;8860;-73
2023/12/14 00:05:42;;;;;;;;;27.40;23.00;;;;;8.12;73.74;98075.63;5110720;27;8860;-74
2023/12/14 00:08:10;;;;;;;;;24.00;22.40;;;;;8.36;72.95;98078.31;5085748;27;9612;-74
2023/12/14 00:10:40;;;;;;;;;23.40;20.60;;;;;8.58;72.04;98094.13;5154903;27;8837;-74
2023/12/14 00:13:08;;;;;;;;;23.00;19.80;;;;;8.53;71.61;98096.03;5156150;27;8865;-74
2023/12/14 00:15:37;;;;;;;;;22.20;21.40;;;;;8.71;71.80;98120.72;5100174;27;8956;-75
2023/12/14 00:18:06;;;;;;;;;24.40;24.40;;;;;8.89;71.67;98121.81;5080434;27;8857;-76
2023/12/14 00:20:37;;;;;;;;;24.60;22.20;;;;;9.03;71.09;98124.78;5132905;27;8876;-74
2023/12/14 00:23:06;;;;;;;;;27.00;24.60;;;;;9.12;70.75;98134.03;5133371;27;8872;-72
2023/12/14 00:25:35;;;;;;;;;23.00;21.60;;;;;9.19;70.37;98146.00;5147168;27;8826;-76
2023/12/14 00:28:04;;;;;;;;;24.00;23.20;;;;;9.18;69.98;98152.19;5153569;27;8988;-75
2023/12/14 00:30:33;;;;;;;;;23.00;22.40;;;;;9.27;69.77;98156.22;5153342;27;8857;-74
2023/12/14 00:33:02;;;;;;;;;24.60;24.00;;;;;9.19;69.90;98152.09;5133082;27;8843;-74
2023/12/14 00:35:31;;;;;;;;;22.00;20.80;;;;;9.10;68.75;98157.72;5134691;27;8863;-77
2023/12/14 00:38:01;;;;;;;;;22.80;22.40;;;;;9.18;69.67;98153.03;5100301;27;8837;-76
2023/12/14 00:40:30;;;;;;;;;20.60;20.60;;;;;8.53;69.92;98166.75;5100733;27;8864;-72
2023/12/14 00:42:59;;;;;;;;;19.60;17.40;;;;;8.79;70.29;98147.50;5153750;27;8857;-76
2023/12/14 00:45:28;;;;;;;;;22.20;18.20;;;;;8.62;70.06;98156.81;5153424;27;8856;-75
2023/12/14 00:47:57;;;;;;;;;21.80;20.60;;;;;8.72;69.61;98156.47;5151498;27;8847;-75
2023/12/14 00:50:26;;;;;;;;;21.20;20.00;;;;;8.27;70.77;98173.72;5152813;27;9011;-73
2023/12/14 00:52:55;;;;;;;;;20.40;19.20;;;;;8.61;70.30;98149.00;5108777;28;8895;-75
2023/12/14 00:55:25;;;;;;;;;21.20;20.60;;;;;8.48;70.65;98166.91;5088733;28;8840;-75
2023/12/14 00:57:54;;;;;;;;;21.60;20.80;;;;;8.60;70.45;98170.88;5088609;28;8897;-75
2023/12/14 01:00:23;;;;;;;;;23.40;21.20;;;;;8.69;70.07;98178.41;5088634;28;9594;-75
2023/12/14 01:02:52;;;;;;;;;22.60;21.00;;;;;8.39;70.66;98181.16;5070779;28;8854;-74
2023/12/14 01:05:21;;;;;;;;;23.00;22.40;;;;;8.62;70.46;98193.47;5087339;28;8836;-74
2023/12/14 01:07:50;;;;;;;;;25.40;24.80;;;;;8.47;70.31;98183.53;5108680;28;9628;-76
2023/12/14 01:10:19;;;;;;;;;25.20;25.20;;;;;8.60;69.63;98186.59;5075087;28;8839;-75
2023/12/14 01:12:50;;;;;;;;;21.00;19.40;;;;;8.73;69.86;98207.97;5092306;28;8899;-74
2023/12/14 01:15:19;;;;;;;;;21.40;21.20;;;;;8.81;69.49;98216.41;5109092;28;9601;-73
2023/12/14 01:17:48;;;;;;;;;23.20;20.00;;;;;8.84;69.12;98217.16;5106304;28;8843;-73
2023/12/14 01:20:17;;;;;;;;;20.00;18.60;;;;;8.73;69.23;98210.59;5099094;28;9025;-74
2023/12/14 01:22:46;;;;;;;;;20.60;18.00;;;;;8.83;68.98;98197.09;5091532;28;8866;-74
2023/12/14 01:25:15;;;;;;;;;23.20;21.60;;;;;8.86;69.52;98195.31;5131466;27;8929;-74
2023/12/14 01:27:44;;;;;;;;;18.00;17.60;;;;;8.89;69.28;98190.78;5133765;27;8992;-73
2023/12/14 01:30:14;;;;;;;;;18.40;17.00;;;;;8.84;68.58;98184.88;5152144;27;8856;-74
2023/12/14 01:32:43;;;;;;;;;16.20;14.40;;;;;8.83;69.09;98180.53;5131048;27;8821;-75
2023/12/14 01:35:13;;;;;;;;;19.20;18.40;;;;;8.73;69.43;98208.81;5152282;27;8841;-75
2023/12/14 01:37:41;;;;;;;;;17.20;17.00;;;;;8.91;69.20;98196.81;5152269;27;8841;-75
2023/12/14 01:40:12;;;;;;;;;21.20;20.20;;;;;9.01;69.18;98168.53;5151944;27;8833;-73
2023/12/14 01:42:40;;;;;;;;;15.60;15.00;;;;;9.15;68.73;98168.03;5082565;27;8853;-73
2023/12/14 01:45:10;;;;;;;;;16.00;16.00;;;;;9.15;68.51;98166.25;5098414;27;8856;-75
2023/12/14 01:47:41;;;;;;;;;16.40;16.40;;;;;9.15;68.17;98178.50;5131684;27;8839;-73
2023/12/14 01:50:10;;;;;;;;;17.40;16.40;;;;;9.10;67.79;98169.94;5151864;27;8827;-73
2023/12/14 01:52:39;;;;;;;;;21.00;19.20;;;;;8.78;68.27;98158.88;5151919;27;8849;-75
2023/12/14 01:55:09;;;;;;;;;19.20;18.40;;;;;8.91;68.30;98152.28;5151795;27;8849;-73
2023/12/14 01:57:37;;;;;;;;;22.00;18.00;;;;;8.71;68.69;98160.03;5152260;27;8856;-75
2023/12/14 02:00:08;;;;;;;;;21.80;19.60;;;;;8.57;69.37;98157.88;5133660;27;8862;-75
2023/12/14 02:02:38;;;;;;;;;20.00;20.00;;;;;8.79;68.91;98164.06;5106426;28;8851;-74
2023/12/14 02:05:09;;;;;;;;;21.60;17.20;;;;;8.85;68.82;98170.84;5108865;28;8856;-74
2023/12/14 02:07:37;;;;;;;;;15.00;13.20;;;;;8.81;68.41;98177.13;5107873;28;8851;-73
2023/12/14 02:10:08;;;;;;;;;12.00;12.00;;;;;8.48;69.68;98177.41;5054255;28;10070;-73
2023/12/14 02:12:37;;;;;;;;;15.20;15.20;;;;;8.53;69.54;98159.75;5087476;28;8933;-75
2023/12/14 02:15:06;;;;;;;;;17.20;17.20;;;;;8.27;70.15;98152.78;5087168;28;8971;-74
2023/12/14 02:17:35;;;;;;;;;13.20;13.20;;;;;8.44;69.59;98150.47;5069934;28;8837;-74
2023/12/14 02:20:05;;;;;;;;;15.80;15.60;;;;;8.60;69.58;98160.38;5091150;28;8852;-73
2023/12/14 02:22:50;;;;;;;;;19.00;17.00;;;;;8.79;69.46;98163.22;5107375;28;8844;-74
2023/12/14 02:25:19;;;;;;;;;16.00;15.00;;;;;8.90;68.75;98155.81;5107211;28;8831;-74
2023/12/14 02:27:49;;;;;;;;;16.00;15.20;;;;;9.06;68.66;98148.22;5107612;28;8877;-74
2023/12/14 02:30:19;;;;;;;;;16.80;15.20;;;;;9.07;67.80;98147.34;5073344;28;8940;-75
2023/12/14 02:32:48;;;;;;;;;10.60;10.60;;;;;9.02;67.94;98147.50;5090389;27;8952;-74
2023/12/14 02:35:18;;;;;;;;;10.00;9.80;;;;;9.01;67.48;98140.56;5130140;27;8865;-74
2023/12/14 02:37:48;;;;;;;;;13.20;12.00;;;;;8.84;68.06;98143.78;5130551;27;8841;-76
2023/12/14 02:40:18;;;;;;;;;11.00;11.00;;;;;8.67;68.94;98150.53;5130168;27;8856;-73
2023/12/14 02:42:46;;;;;;;;;10.80;10.80;;;;;8.74;68.57;98144.16;5134082;27;8849;-73
2023/12/14 02:45:16;;;;;;;;;10.00;9.60;;;;;8.75;68.77;98156.38;5150715;27;8928;-73
2023/12/14 02:47:46;;;;;;;;;9.80;9.80;;;;;8.74;68.94;98167.75;5149899;27;8840;-73
2023/12/14 02:50:16;;;;;;;;;10.60;10.60;;;;;8.64;69.36;98168.06;5150844;27;9601;-75
2023/12/14 02:52:45;;;;;;;;;15.80;15.80;;;;;8.61;69.33;98165.59;5151020;27;8974;-76
2023/12/14 02:55:15;;;;;;;;;13.60;12.20;;;;;8.62;69.37;98156.81;5081054;27;8851;-74
2023/12/14 02:57:44;;;;;;;;;15.60;14.40;;;;;8.66;69.35;98152.31;5097002;27;8905;-76
2023/12/14 03:00:14;;;;;;;;;10.80;9.00;;;;;8.29;69.74;98144.84;5151022;27;8835;-74
2023/12/14 03:02:43;;;;;;;;;9.00;9.00;;;;;8.03;71.96;98150.06;5149288;27;8812;-74
2023/12/14 03:05:12;;;;;;;;;8.00;8.00;;;;;8.01;71.40;98156.25;5150346;27;8835;-74
2023/12/14 03:07:41;;;;;;;;;9.00;9.00;;;;;8.07;70.89;98169.13;5114551;27;8886;-75
2023/12/14 03:10:11;;;;;;;;;9.20;7.80;;;;;7.92;72.05;98167.88;5149928;27;8925;-73
2023/12/14 03:12:41;;;;;;;;;9.40;8.20;;;;;7.71;72.55;98165.94;5150703;27;8875;-77
2023/12/14 03:15:11;;;;;;;;;7.60;7.60;;;;;7.70;72.86;98178.16;5150453;27;8849;-74
2023/12/14 03:17:39;;;;;;;;;8.60;7.00;;;;;7.60;72.79;98188.03;5139430;27;8865;-73
2023/12/14 03:20:09;;;;;;;;;7.80;7.00;;;;;7.86;72.12;98168.06;5111074;27;8845;-76
2023/12/14 03:22:39;;;;;;;;;7.00;7.00;;;;;7.80;71.96;98187.44;5111012;27;8838;-75
2023/12/14 03:25:10;;;;;;;;;7.00;7.00;;;;;7.99;72.01;98185.09;5135079;27;8863;-76
2023/12/14 03:27:40;;;;;;;;;6.20;6.20;;;;;8.09;71.74;98190.03;5131437;27;8933;-76
2023/12/14 03:30:10;;;;;;;;;6.60;6.20;;;;;8.12;71.60;98182.06;5150377;27;8865;-73
2023/12/14 03:32:39;;;;;;;;;5.00;5.00;;;;;7.83;72.15;98183.84;5148495;27;8835;-75
2023/12/14 03:35:09;;;;;;;;;8.60;8.60;;;;;8.02;72.26;98174.53;5131325;27;8847;-73
2023/12/14 03:37:38;;;;;;;;;7.20;7.00;;;;;7.98;72.11;98164.19;5150045;27;8847;-75
2023/12/14 03:40:08;;;;;;;;;8.60;8.20;;;;;7.87;72.54;98154.06;5149186;27;8866;-74
2023/12/14 03:42:37;;;;;;;;;5.00;5.00;;;;;7.67;72.53;98157.34;5150050;27;8868;-75
2023/12/14 03:45:09;;;;;;;;;9.20;7.00;;;;;7.85;71.93;98175.06;5149956;27;8880;-73
2023/12/14 03:47:37;;;;;;;;;5.80;5.00;;;;;7.71;72.11;98187.72;5108290;27;9013;-74
2023/12/14 03:50:09;;;;;;;;;8.00;5.80;;;;;7.85;73.07;98180.31;5129633;27;8849;-74
2023/12/14 03:52:38;;;;;;;;;4.80;4.80;;;;;8.14;72.42;98180.28;5077352;27;8845;-73
2023/12/14 03:55:08;;;;;;;;;3.80;3.80;;;;;8.09;71.92;98169.94;5085333;28;8892;-75
2023/12/14 03:57:37;;;;;;;;;8.40;7.80;;;;;7.97;73.00;98175.59;5018692;28;8892;-75
2023/12/14 04:00:11;;;;;;;;;8.00;8.00;;;;;8.14;72.40;98182.88;5085569;28;8846;-75
2023/12/14 04:02:40;;;;;;;;;7.60;7.60;;;;;8.24;72.00;98192.97;5084810;28;8853;-74
2023/12/14 04:05:09;;;;;;;;;8.40;8.40;;;;;8.36;71.16;98209.22;5085928;28;8878;-74
2023/12/14 04:07:40;;;;;;;;;7.00;7.00;;;;;8.50;71.25;98214.00;5097326;28;8890;-75
2023/12/14 04:10:10;;;;;;;;;8.00;7.00;;;;;8.52;70.79;98231.38;5106319;28;8855;-76
2023/12/14 04:12:40;;;;;;;;;7.00;7.00;;;;;8.45;70.57;98224.63;5105949;28;8990;-75
2023/12/14 04:15:11;;;;;;;;;9.00;8.60;;;;;8.55;70.39;98217.31;5089016;28;8931;-74
2023/12/14 04:17:40;;;;;;;;;7.20;7.20;;;;;8.70;70.34;98222.03;5070595;28;8916;-74
2023/12/14 04:20:11;;;;;;;;;8.00;8.00;;;;;8.77;69.51;98213.03;5088877;28;8846;-72
2023/12/14 04:22:40;;;;;;;;;12.60;10.20;;;;;8.88;69.62;98204.81;5089036;28;8836;-74
2023/12/14 04:25:09;;;;;;;;;11.80;11.00;;;;;8.90;69.19;98207.38;5105744;28;8836;-72
2023/12/14 04:27:38;;;;;;;;;10.40;10.20;;;;;8.81;69.27;98216.41;5055951;28;8863;-72
2023/12/14 04:30:10;;;;;;;;;5.00;5.00;;;;;8.44;69.05;98228.16;5072292;28;8859;-75
2023/12/14 04:32:41;;;;;;;;;8.80;7.60;;;;;8.63;69.76;98226.63;5122626;27;8831;-75
2023/12/14 04:35:10;;;;;;;;;7.80;7.80;;;;;8.69;70.14;98236.03;5149599;27;8845;-73
2023/12/14 04:37:39;;;;;;;;;8.80;8.80;;;;;8.43;70.27;98234.31;5150231;27;8843;-75
2023/12/14 04:40:09;;;;;;;;;5.40;5.40;;;;;8.17;71.49;98220.25;5131212;27;8846;-74
2023/12/14 04:42:38;;;;;;;;;8.20;8.00;;;;;7.99;71.30;98224.34;5149827;27;8846;-77
2023/12/14 04:45:08;;;;;;;;;7.60;7.60;;;;;7.96;71.86;98220.97;5149226;27;8957;-72
2023/12/14 04:47:37;;;;;;;;;9.20;8.00;;;;;7.88;71.91;98211.59;5147868;27;9769;-73
2023/12/14 04:50:09;;;;;;;;;10.40;9.00;;;;;7.80;72.10;98216.22;5149023;27;8831;-76
2023/12/14 04:52:38;;;;;;;;;11.00;9.60;;;;;7.40;74.12;98214.81;5115121;27;8859;-73
2023/12/14 04:55:08;;;;;;;;;8.20;7.40;;;;;7.40;74.53;98214.81;5153035;27;8837;-73
2023/12/14 04:57:37;;;;;;;;;17.40;15.40;;;;;7.46;74.43;98216.38;5088313;28;9001;-73
2023/12/14 05:00:07;;;;;;;;;10.00;9.20;;;;;7.36;74.51;98207.97;5091021;28;8962;-73
2023/12/14 05:02:36;;;;;;;;;14.80;14.80;;;;;7.37;75.50;98211.41;5087918;28;8851;-74
2023/12/14 05:05:06;;;;;;;;;14.40;10.40;;;;;6.95;77.27;98215.22;5088580;28;8829;-74
2023/12/14 05:07:36;;;;;;;;;14.20;11.60;;;;;6.91;77.12;98208.38;5088794;28;8875;-72
2023/12/14 05:10:06;;;;;;;;;13.00;11.80;;;;;6.63;78.10;98210.81;5088400;28;8826;-74
2023/12/14 05:12:35;;;;;;;;;12.80;12.80;;;;;6.68;78.29;98195.88;5088461;28;8845;-73
2023/12/14 05:15:06;;;;;;;;;11.80;10.40;;;;;6.61;78.66;98195.19;5087923;28;8846;-75
2023/12/14 05:17:36;;;;;;;;;12.40;9.80;;;;;6.77;77.74;98195.63;5085438;28;9603;-73
2023/12/14 05:20:09;;;;;;;;;9.60;9.60;;;;;6.79;78.09;98186.00;5067612;28;8855;-74
2023/12/14 05:22:40;;;;;;;;;10.80;10.00;;;;;6.79;78.11;98196.44;5077256;28;8857;-74
2023/12/14 05:25:10;;;;;;;;;8.00;7.00;;;;;7.03;76.96;98218.47;5087859;28;8830;-75
2023/12/14 05:27:39;;;;;;;;;8.00;7.60;;;;;7.26;75.52;98209.09;5088212;27;8885;-75
2023/12/14 05:30:09;;;;;;;;;10.40;9.60;;;;;7.12;76.24;98209.50;5131796;27;8930;-74
2023/12/14 05:32:38;;;;;;;;;9.20;8.60;;;;;7.28;75.85;98231.69;5112760;27;8856;-74
2023/12/14 05:35:09;;;;;;;;;10.20;8.80;;;;;7.58;74.53;98244.75;5089184;28;8870;-75
2023/12/14 05:37:41;;;;;;;;;7.40;6.80;;;;;7.60;74.38;98256.03;5107626;28;8873;-72
2023/12/14 05:40:11;;;;;;;;;13.00;13.00;;;;;7.81;73.84;98254.53;5107293;28;8947;-74
2023/12/14 05:42:40;;;;;;;;;8.00;8.00;;;;;7.66;73.80;98255.00;5108197;28;8956;-72
2023/12/14 05:45:11;;;;;;;;;10.80;10.20;;;;;7.92;73.50;98263.81;5062079;28;8893;-74
2023/12/14 05:47:41;;;;;;;;;10.20;8.80;;;;;8.01;72.88;98263.53;5037246;28;8894;-75
2023/12/14 05:50:11;;;;;;;;;5.80;5.80;;;;;8.26;72.01;98225.19;5026797;28;9735;-74
2023/12/14 05:52:41;;;;;;;;;25.20;22.40;;;;;8.25;71.41;98214.78;5027713;28;8849;-74
2023/12/14 05:55:11;;;;;;;;;12.00;11.20;;;;;7.96;71.44;98219.19;4980198;28;8955;-76
2023/12/14 05:57:40;;;;;;;;;13.00;13.00;;;;;7.74;72.72;98224.25;5027818;28;8871;-74
2023/12/14 06:00:09;;;;;;;;;16.60;14.80;;;;;7.60;73.43;98215.97;5010222;28;8878;-74
2023/12/14 06:02:38;;;;;;;;;15.20;14.00;;;;;7.69;72.33;98228.75;4990317;28;8871;-74
2023/12/14 06:05:09;;;;;;;;;12.60;12.00;;;;;7.83;72.35;98237.03;4987037;28;8987;-74
2023/12/14 06:07:38;;;;;;;;;14.80;11.60;;;;;7.74;72.09;98239.94;4978325;28;9050;-73
2023/12/14 06:10:09;;;;;;;;;11.00;11.00;;;;;8.00;72.09;98235.66;5032276;28;8853;-75
2023/12/14 06:12:38;;;;;;;;;8.80;8.40;;;;;7.94;71.12;98257.63;5053578;28;8866;-74
2023/12/14 06:15:08;;;;;;;;;10.00;10.00;;;;;8.01;71.22;98263.53;5085610;28;8853;-72
2023/12/14 06:17:39;;;;;;;;;11.60;10.20;;;;;8.13;71.00;98278.84;5066616;28;8824;-74
2023/12/14 06:20:09;;;;;;;;;12.60;10.80;;;;;8.16;70.13;98288.38;5066616;28;8848;-74
2023/12/14 06:22:39;;;;;;;;;14.00;10.80;;;;;7.90;71.06;98295.25;5067022;28;8861;-75
2023/12/14 06:25:10;;;;;;;;;13.40;10.00;;;;;7.80;71.80;98312.16;5078506;28;8814;-75
2023/12/14 06:27:38;;;;;;;;;10.00;10.00;;;;;8.00;71.12;98330.72;5082244;28;8848;-72
2023/12/14 06:30:10;;;;;;;;;9.40;9.40;;;;;8.15;70.69;98345.09;5103987;28;8842;-75
2023/12/14 06:32:39;;;;;;;;;15.00;15.00;;;;;8.10;70.40;98352.25;5087114;28;8818;-72
2023/12/14 06:35:09;;;;;;;;;10.60;9.80;;;;;8.36;69.95;98340.13;5126683;27;8827;-75
2023/12/14 06:37:38;;;;;;;;;11.40;11.40;;;;;8.25;69.98;98346.53;5092864;28;8881;-74
2023/12/14 06:40:10;;;;;;;;;10.60;10.40;;;;;8.63;69.53;98354.97;5107022;28;8837;-73
2023/12/14 06:42:39;;;;;;;;;11.00;10.20;;;;;8.87;69.25;98346.38;5106342;28;8830;-77
2023/12/14 06:45:10;;;;;;;;;16.40;12.80;;;;;9.03;69.05;98340.56;5065655;28;8835;-74
2023/12/14 06:47:41;;;;;;;;;15.00;13.20;;;;;9.15;67.89;98334.03;5100596;28;8959;-74
2023/12/14 06:50:12;;;;;;;;;13.20;11.60;;;;;9.34;68.10;98328.16;5088010;28;8842;-75
2023/12/14 06:52:41;;;;;;;;;21.00;16.00;;;;;9.41;67.43;98321.78;5086177;28;8851;-75
2023/12/14 06:55:14;;;;;;;;;17.00;17.00;;;;;9.48;66.71;98318.03;5100605;28;8829;-74
2023/12/14 06:57:44;;;;;;;;;17.40;15.80;;;;;9.42;66.63;98321.72;5106520;28;8986;-74
2023/12/14 07:00:14;;;;;;;;;27.60;26.80;;;;;9.14;66.94;98334.06;5089770;28;8844;-75
2023/12/14 07:02:44;;;;;;;;;24.00;22.40;;;;;9.34;67.02;98360.47;5073120;28;8879;-73
2023/12/14 07:05:13;;;;;;;;;23.20;20.40;;;;;9.44;67.00;98353.13;5106555;28;8871;-74
2023/12/14 07:07:42;;;;;;;;;23.80;22.80;;;;;9.46;66.11;98353.06;5106267;28;8853;-74
2023/12/14 07:10:13;;;;;;;;;19.80;19.80;;;;;9.35;66.48;98356.94;5106727;28;8934;-72
2023/12/14 07:12:42;;;;;;;;;21.60;18.20;;;;;9.49;66.96;98350.34;5119258;27;8849;-74
2023/12/14 07:15:11;;;;;;;;;23.20;22.40;;;;;9.63;66.41;98345.50;5127026;27;8850;-74
2023/12/14 07:17:40;;;;;;;;;18.20;16.00;;;;;9.71;66.05;98335.59;5128345;27;8838;-72
2023/12/14 07:20:12;;;;;;;;;23.20;21.80;;;;;9.75;65.94;98346.81;5098272;28;8857;-74
2023/12/14 07:22:41;;;;;;;;;21.60;16.00;;;;;9.87;66.27;98329.75;5045893;28;8901;-73
2023/12/14 07:25:10;;;;;;;;;19.60;19.60;;;;;9.96;66.09;98332.03;5121791;27;8872;-74
2023/12/14 07:27:40;;;;;;;;;19.80;18.80;;;;;10.08;65.38;98341.22;5149552;27;8978;-74
2023/12/14 07:30:10;;;;;;;;;21.40;20.00;;;;;10.09;65.40;98350.81;5097096;27;8925;-73
2023/12/14 07:32:39;;;;;;;;;19.80;17.60;;;;;10.08;64.31;98351.72;5148648;27;8868;-74
2023/12/14 07:35:10;;;;;;;;;24.80;21.00;;;;;10.17;64.98;98356.63;5118638;27;8825;-74
2023/12/14 07:37:40;;;;;;;;;23.60;21.80;;;;;10.27;65.04;98354.50;5135419;27;8838;-74
2023/12/14 07:40:10;;;;;;;;;21.60;20.20;;;;;10.27;63.74;98354.50;5146161;27;8967;-75
2023/12/14 07:42:40;;;;;;;;;19.60;19.40;;;;;9.57;64.48;98361.47;5149713;27;8856;-75
2023/12/14 07:45:10;;;;;;;;;21.40;20.20;;;;;8.71;67.61;98377.47;5149338;27;8987;-74
2023/12/14 07:47:39;;;;;;;;;29.20;27.60;;;;;8.26;70.51;98387.50;5149769;27;8849;-75
2023/12/14 07:50:09;;;;;;;;;18.00;16.00;;;;;7.77;72.34;98399.41;5113098;27;8853;-74
2023/12/14 07:52:38;;;;;;;;;16.00;13.80;;;;;7.45;73.46;98395.06;5149665;27;8864;-75
2023/12/14 07:55:08;;;;;;;;;17.20;16.00;;;;;7.53;73.64;98394.84;5148760;27;8825;-75
2023/12/14 07:57:36;;;;;;;;;19.20;18.40;;;;;8.07;72.83;98402.06;5149826;27;8861;-74
2023/12/14 08:00:10;;;;;;;;;17.00;16.00;;;;;8.39;71.83;98400.28;5096584;27;8857;-74
2023/12/14 08:02:39;;;;;;;;;23.20;20.80;;;;;8.67;70.64;98402.03;5130843;27;8863;-76
2023/12/14 08:05:09;;;;;;;;;17.60;15.60;;;;;8.44;70.29;98403.63;5149354;27;8845;-78
2023/12/14 08:07:38;;;;;;;;;17.60;15.60;;;;;8.08;71.56;98409.03;5130798;27;8880;-76
2023/12/14 08:10:08;;;;;;;;;15.60;15.20;;;;;7.71;73.61;98417.03;5149238;27;8921;-76
2023/12/14 08:12:37;;;;;;;;;17.80;17.80;;;;;7.57;73.30;98423.50;5149380;27;8824;-76
2023/12/14 08:15:09;;;;;;;;;19.20;18.20;;;;;7.40;75.17;98433.53;5150379;27;9208;-78
2023/12/14 08:17:37;;;;;;;;;24.60;23.40;;;;;7.47;75.54;98435.09;5115219;27;8875;-77
2023/12/14 08:20:08;;;;;;;;;23.40;22.60;;;;;7.39;75.00;98445.75;5097522;27;8843;-77
2023/12/14 08:22:37;;;;;;;;;21.40;20.80;;;;;7.44;76.18;98451.72;5097847;27;8840;-75
2023/12/14 08:25:10;;;;;;;;;23.60;19.00;;;;;7.88;74.22;98447.06;5080408;27;8862;-76
2023/12/14 08:27:39;;;;;;;;;20.00;19.80;;;;;7.84;73.73;98453.28;5152253;27;8845;-78
2023/12/14 08:30:11;;;;;;;;;17.80;17.20;;;;;7.80;74.59;98463.88;5153934;27;9011;-75
2023/12/14 08:32:39;;;;;;;;;20.80;19.80;;;;;7.60;74.21;98465.25;5083406;27;8833;-76
2023/12/14 08:35:10;;;;;;;;;16.60;16.20;;;;;7.13;76.63;98464.69;5117944;27;8845;-76
2023/12/14 08:37:39;;;;;;;;;17.40;16.80;;;;;6.86;77.93;98481.88;5134902;27;8852;-75
2023/12/14 08:40:09;;;;;;;;;21.40;21.00;;;;;6.79;79.81;98488.97;5135231;27;8841;-75
2023/12/14 08:42:38;;;;;;;;;21.20;20.40;;;;;6.70;80.22;98495.28;5117004;27;9075;-75
2023/12/14 08:45:12;;;;;;;;;24.60;23.60;;;;;6.65;80.76;98497.13;5153529;27;9614;-77
2023/12/14 08:47:41;;;;;;;;;28.80;26.60;;;;;6.60;81.66;98508.56;5101248;27;8865;-75
2023/12/14 08:50:10;;;;;;;;;27.00;26.00;;;;;6.53;81.19;98510.44;5152981;27;9718;-74
2023/12/14 08:52:39;;;;;;;;;29.40;29.00;;;;;6.59;81.10;98512.06;5134417;27;8857;-75
2023/12/14 08:55:09;;;;;;;;;38.20;32.80;;;;;6.58;81.57;98513.81;5155050;27;9413;-74
2023/12/14 08:57:38;;;;;;;;;29.00;27.00;;;;;6.46;82.16;98514.94;5135967;27;8879;-75
2023/12/14 09:00:08;;;;;;;;;37.20;33.80;;;;;6.46;81.99;98522.75;5152904;27;8845;-75
2023/12/14 09:02:38;;;;;;;;;37.00;34.80;;;;;6.58;81.62;98519.03;5083390;27;8933;-76
2023/12/14 09:05:09;;;;;;;;;31.60;30.80;;;;;6.35;82.47;98516.03;5134529;27;8885;-74
2023/12/14 09:07:40;;;;;;;;;33.80;33.60;;;;;6.31;82.96;98520.47;5134543;27;8867;-75
2023/12/14 09:10:10;;;;;;;;;30.80;27.00;;;;;5.99;83.76;98506.28;5100185;27;9551;-73
2023/12/14 09:12:39;;;;;;;;;45.00;39.25;;;;;6.24;83.11;98514.50;5134380;27;8861;-75
2023/12/14 09:15:09;;;;;;;;;37.40;33.40;;;;;6.29;83.13;98517.03;5134383;27;9585;-76
2023/12/14 09:17:39;;;;;;;;;40.60;35.20;;;;;6.66;82.73;98508.41;5134040;27;8888;-75
2023/12/14 09:20:11;;;;;;;;;42.20;36.60;;;;;6.81;81.04;98505.47;5152977;27;8841;-76
2023/12/14 09:22:40;;;;;;;;;57.25;44.00;;;;;7.19;79.38;98495.06;5101159;27;8841;-76
2023/12/14 09:25:10;;;;;;;;;35.40;34.60;;;;;6.68;80.81;98511.84;5130968;27;8811;-76
2023/12/14 09:27:39;;;;;;;;;39.80;37.20;;;;;7.13;80.42;98513.50;5132296;27;8973;-76
2023/12/14 09:30:09;;;;;;;;;32.60;29.60;;;;;7.28;78.26;98520.97;5132265;27;8918;-75
2023/12/14 09:32:41;;;;;;;;;59.25;48.75;;;;;6.73;81.33;98530.91;5131806;27;8883;-73
2023/12/14 09:35:10;;;;;;;;;41.75;37.75;;;;;6.71;81.63;98536.16;5131546;27;8823;-74
2023/12/14 09:37:41;;;;;;;;;48.75;40.00;;;;;6.82;81.11;98538.53;5130307;27;8839;-76
2023/12/14 09:40:11;;;;;;;;;45.20;38.00;;;;;6.78;82.32;98526.44;5094743;27;8877;-74
2023/12/14 09:42:40;;;;;;;;;49.25;42.25;;;;;6.63;82.18;98532.84;5112475;27;8858;-75
2023/12/14 09:45:12;;;;;;;;;41.40;37.60;;;;;6.55;83.13;98531.28;5108345;28;8928;-76
2023/12/14 09:47:42;;;;;;;;;41.80;36.80;;;;;6.60;82.84;98524.22;5091195;28;8840;-74
2023/12/14 09:50:14;;;;;;;;;37.80;36.60;;;;;6.51;83.33;98520.03;5058434;28;8863;-74
2023/12/14 09:52:45;;;;;;;;;37.80;35.40;;;;;6.71;81.84;98520.47;5108188;28;9698;-74
2023/12/14 09:55:14;;;;;;;;;43.80;34.80;;;;;6.19;83.80;98524.19;5091228;28;8866;-75
2023/12/14 09:57:43;;;;;;;;;40.60;33.00;;;;;6.42;81.97;98515.88;5108075;28;8908;-73
2023/12/14 10:00:15;;;;;;;;;38.60;35.80;;;;;6.32;82.75;98523.06;5091279;28;8869;-77
2023/12/14 10:02:45;;;;;;;;;41.80;35.40;;;;;5.89;84.61;98536.91;5107953;28;8863;-75
2023/12/14 10:05:16;;;;;;;;;27.00;23.80;;;;;5.80;84.50;98544.91;5091726;28;9070;-75
2023/12/14 10:07:45;;;;;;;;;23.00;22.00;;;;;5.62;85.93;98540.00;5091303;28;8862;-76
2023/12/14 10:10:15;;;;;;;;;13.40;13.00;;;;;5.45;85.20;98543.75;5107916;28;8886;-76
2023/12/14 10:13:01;;;;;;;;;7.60;7.40;;;;;5.51;84.09;98558.44;5090968;28;8851;-75
2023/12/14 10:15:30;;;;;;;;;10.60;10.60;;;;;6.09;82.78;98554.78;5094125;27;8839;-75
2023/12/14 10:18:01;;;;;;;;;14.20;13.80;;;;;5.77;83.49;98571.00;5131119;27;8835;-74
2023/12/14 10:20:30;;;;;;;;;13.80;13.40;;;;;6.16;81.52;98576.41;5079004;27;8993;-75
2023/12/14 10:23:00;;;;;;;;;14.00;14.00;;;;;6.07;82.07;98585.25;5130861;27;8846;-76
2023/12/14 10:25:29;;;;;;;;;6.20;5.60;;;;;5.64;83.95;98587.75;5140501;27;8998;-75
2023/12/14 10:27:59;;;;;;;;;13.80;13.60;;;;;5.29;84.91;98600.41;5151349;27;8861;-75
2023/12/14 10:30:30;;;;;;;;;14.00;13.00;;;;;5.33;84.82;98602.13;5133027;27;8833;-76
2023/12/14 10:33:03;;;;;;;;;14.60;14.60;;;;;5.41;85.44;98608.97;5151075;27;8848;-75
2023/12/14 10:35:32;;;;;;;;;17.60;16.60;;;;;5.41;85.77;98609.81;5151498;27;8837;-77
2023/12/14 10:38:04;;;;;;;;;16.40;16.20;;;;;5.50;84.62;98609.69;5150879;27;8903;-78
2023/12/14 10:40:34;;;;;;;;;20.40;19.20;;;;;5.81;83.37;98617.03;5151534;27;8901;-74
2023/12/14 10:43:05;;;;;;;;;24.60;24.00;;;;;5.88;84.17;98613.41;5151269;27;8837;-76
2023/12/14 10:45:37;;;;;;;;;27.60;24.00;;;;;5.87;84.03;98618.69;5151517;27;8844;-75
2023/12/14 10:48:08;;;;;;;;;23.00;22.80;;;;;5.60;84.71;98614.75;5132760;27;8857;-76
2023/12/14 10:50:38;;;;;;;;;23.00;20.40;;;;;5.93;82.83;98609.00;5115344;27;8941;-79
2023/12/14 10:53:07;;;;;;;;;22.60;22.00;;;;;6.30;81.44;98607.47;5115446;27;8891;-76
2023/12/14 10:55:42;;;;;;;;;17.80;17.40;;;;;6.45;80.95;98601.94;5098995;27;8887;-76
2023/12/14 10:58:12;;;;;;;;;30.00;25.20;;;;;6.52;79.65;98600.09;5150778;27;8962;-78
2023/12/14 11:00:44;;;;;;;;;20.00;19.00;;;;;6.90;78.53;98588.03;5151922;27;8865;-77
2023/12/14 11:03:17;;;;;;;;;22.60;20.80;;;;;7.21;77.86;98597.81;5151405;27;8861;-75
2023/12/14 11:05:46;;;;;;;;;24.00;21.80;;;;;7.38;76.47;98600.03;5131994;27;8992;-78
2023/12/14 11:08:17;;;;;;;;;28.60;26.60;;;;;7.09;77.23;98602.41;5106507;28;8835;-76
2023/12/14 11:10:56;;;;;;;;;30.40;28.20;;;;;6.44;79.57;98604.63;5106940;28;8859;-75
2023/12/14 11:13:25;;;;;;;;;44.00;39.00;;;;;6.25;80.79;98617.16;5040181;28;8873;-75
2023/12/14 11:15:55;;;;;;;;;35.60;31.80;;;;;6.14;81.85;98614.72;5089767;28;8836;-73
2023/12/14 11:18:27;;;;;;;;;63.25;49.75;;;;;6.28;81.19;98610.09;5089394;28;8848;-75
2023/12/14 11:20:58;;;;;;;;;32.80;32.20;;;;;6.03;81.38;98608.84;5106344;28;9604;-75
2023/12/14 11:23:31;;;;;;;;;40.60;37.20;;;;;6.01;82.09;98608.84;5106340;28;8982;-76
2023/12/14 11:26:04;;;;;;;;;32.20;29.80;;;;;6.07;81.20;98611.34;5106125;28;8928;-75
2023/12/14 11:28:36;;;;;;;;;28.60;27.00;;;;;5.85;82.00;98615.22;5088993;28;8855;-77
2023/12/14 11:31:07;;;;;;;;;43.80;39.80;;;;;5.95;83.00;98621.16;5106267;28;8850;-76
2023/12/14 11:33:38;;;;;;;;;40.80;35.80;;;;;5.97;82.94;98632.44;5106718;28;9012;-75
2023/12/14 11:36:13;;;;;;;;;27.00;26.20;;;;;5.95;81.55;98627.22;5091785;28;8954;-75
2023/12/14 11:38:43;;;;;;;;;30.40;28.80;;;;;5.95;82.39;98629.84;5072301;28;8986;-75
2023/12/14 11:41:12;;;;;;;;;27.60;24.00;;;;;6.23;81.17;98638.06;5088856;28;8870;-75
2023/12/14 11:43:42;;;;;;;;;24.40;23.00;;;;;6.36;80.01;98632.59;5089138;28;8885;-75
2023/12/14 11:46:11;;;;;;;;;23.20;20.60;;;;;6.02;81.12;98639.28;5132019;27;8907;-75
2023/12/14 11:48:45;;;;;;;;;27.40;25.40;;;;;6.23;81.42;98643.28;5149585;27;8878;-75